Time;durP1;ratioP1;P1;durP2;ratioP2;P2;SDS_P1;SDS_P2;PMS_P1;PMS_P2;Temp;Humidity;BMP_temperature;BMP_pressure;BME280_temperature;BME280_humidity;BME280_pressure;Samples;Min_cycle;Max_cycle;Signal;HPM_P1;HPM_P2
2021/07/17 00:01:16;;;;;;;10.93;8.85;;;;;;;20.05;73.13;100327.97;2200175;40;20089;-78
2021/07/17 00:02:47;;;;;;;11.25;8.25;;;;;;;20.01;73.17;100326.72;2185798;40;20821;-81
2021/07/17 00:04:18;;;;;;;10.05;7.88;;;;;;;20.04;73.24;100330.91;2199687;40;20050;-79
2021/07/17 00:05:50;;;;;;;11.27;8.15;;;;;;;20.09;73.08;100334.69;2199774;40;20031;-80
2021/07/17 00:07:23;;;;;;;17.20;10.30;;;;;;;20.09;72.78;100331.97;2205207;40;20038;-79
2021/07/17 00:08:55;;;;;;;16.45;9.20;;;;;;;20.04;73.07;100329.00;2200224;40;20046;-81
2021/07/17 00:10:32;;;;;;;11.35;8.20;;;;;;;20.02;72.96;100327.53;2200382;40;20050;-79
2021/07/17 00:12:04;;;;;;;11.35;8.68;;;;;;;19.98;73.18;100332.53;2199352;40;20346;-80
2021/07/17 00:13:35;;;;;;;16.13;10.45;;;;;;;19.95;73.30;100332.94;2201261;40;20030;-78
2021/07/17 00:15:10;;;;;;;14.85;10.18;;;;;;;19.88;73.18;100332.06;2200891;40;20094;-79
2021/07/17 00:16:43;;;;;;;10.85;8.43;;;;;;;19.85;73.60;100335.13;2200287;40;20054;-79
2021/07/17 00:18:15;;;;;;;11.20;8.43;;;;;;;19.84;73.34;100337.00;2201608;40;20078;-77
2021/07/17 00:19:47;;;;;;;10.40;8.50;;;;;;;19.86;73.23;100340.41;2200984;40;20061;-78
2021/07/17 00:21:18;;;;;;;11.27;8.43;;;;;;;19.88;73.28;100341.03;2201760;40;20034;-79
2021/07/17 00:22:50;;;;;;;10.50;7.90;;;;;;;19.90;73.12;100340.84;2201010;40;20035;-78
2021/07/17 00:24:24;;;;;;;13.18;8.63;;;;;;;19.92;73.31;100341.47;2200701;40;20046;-79
2021/07/17 00:25:57;;;;;;;12.18;8.98;;;;;;;19.91;73.33;100337.09;2202213;40;20054;-79
2021/07/17 00:27:29;;;;;;;11.40;8.00;;;;;;;19.93;73.39;100324.19;2200650;40;20035;-79
2021/07/17 00:29:01;;;;;;;12.73;9.00;;;;;;;19.92;73.35;100333.34;2200907;40;20445;-78
2021/07/17 00:30:34;;;;;;;10.02;8.05;;;;;;;19.90;73.21;100332.69;2202799;40;20313;-78
2021/07/17 00:32:05;;;;;;;11.88;9.18;;;;;;;19.88;73.49;100334.75;2204050;40;20042;-79
2021/07/17 00:33:37;;;;;;;10.48;8.63;;;;;;;19.90;73.49;100324.56;2202565;40;20056;-79
2021/07/17 00:35:09;;;;;;;9.30;8.00;;;;;;;19.93;73.10;100327.72;2204665;40;20657;-78
2021/07/17 00:36:41;;;;;;;11.45;8.10;;;;;;;19.93;73.14;100332.31;2203786;40;20046;-79
2021/07/17 00:38:15;;;;;;;10.45;8.57;;;;;;;19.93;73.33;100341.28;2204089;40;20057;-78
2021/07/17 00:39:46;;;;;;;14.75;9.65;;;;;;;19.91;73.49;100334.38;2202463;40;20053;-78
2021/07/17 00:41:18;;;;;;;13.00;9.88;;;;;;;19.87;73.42;100341.22;2205088;40;20046;-79
2021/07/17 00:42:51;;;;;;;14.60;10.35;;;;;;;19.85;73.33;100340.53;2202904;40;20034;-79
2021/07/17 00:44:22;;;;;;;10.30;8.25;;;;;;;19.78;73.67;100344.06;2204794;40;20054;-78
2021/07/17 00:45:55;;;;;;;11.23;8.35;;;;;;;19.76;73.58;100332.56;2202429;40;20046;-79
2021/07/17 00:47:26;;;;;;;14.25;9.35;;;;;;;19.75;73.81;100333.59;2201119;40;20039;-79
2021/07/17 00:48:58;;;;;;;12.90;8.13;;;;;;;19.72;73.66;100338.59;2199291;40;20273;-79
2021/07/17 00:50:30;;;;;;;11.00;8.82;;;;;;;19.72;73.97;100346.72;2203912;40;20050;-79
2021/07/17 00:52:02;;;;;;;10.70;8.25;;;;;;;19.68;73.73;100340.88;2201408;40;20046;-78
2021/07/17 00:53:34;;;;;;;10.70;8.73;;;;;;;19.67;74.02;100341.06;2200680;40;20027;-79
2021/07/17 00:55:07;;;;;;;11.43;8.35;;;;;;;19.68;73.77;100338.16;2189607;40;20047;-79
2021/07/17 00:56:40;;;;;;;9.00;7.60;;;;;;;19.68;73.56;100332.72;2200745;40;20433;-78
2021/07/17 00:58:13;;;;;;;11.55;7.50;;;;;;;19.68;73.47;100338.16;2199262;40;20035;-77
2021/07/17 00:59:48;;;;;;;11.65;8.95;;;;;;;19.67;73.58;100325.63;2200502;40;20031;-79
2021/07/17 01:01:21;;;;;;;13.18;8.73;;;;;;;19.64;73.55;100331.47;2199565;40;20031;-78
2021/07/17 01:02:56;;;;;;;11.93;8.43;;;;;;;19.61;73.42;100323.72;2199550;40;20061;-79
2021/07/17 01:04:29;;;;;;;9.90;8.10;;;;;;;19.60;73.71;100325.56;2201291;40;20041;-78
2021/07/17 01:06:01;;;;;;;10.32;8.18;;;;;;;19.65;73.19;100327.69;2194792;40;20035;-78
2021/07/17 01:07:33;;;;;;;13.57;8.57;;;;;;;19.70;73.31;100329.81;2185868;40;20055;-79
2021/07/17 01:09:05;;;;;;;9.30;7.53;;;;;;;19.66;72.90;100323.13;2199859;40;20085;-78
2021/07/17 01:10:37;;;;;;;9.88;7.05;;;;;;;19.65;72.83;100324.97;2201468;40;20327;-78
2021/07/17 01:12:08;;;;;;;10.27;7.00;;;;;;;19.69;72.49;100322.75;2200888;40;20354;-78
2021/07/17 01:13:40;;;;;;;10.25;7.20;;;;;;;19.72;72.61;100325.03;2201035;40;20026;-78
2021/07/17 01:15:11;;;;;;;12.07;7.25;;;;;;;19.71;72.35;100326.91;2201633;40;20054;-79
2021/07/17 01:16:45;;;;;;;9.40;7.30;;;;;;;19.66;72.13;100329.38;2200642;40;20041;-78
2021/07/17 01:18:17;;;;;;;8.23;6.18;;;;;;;19.65;71.81;100330.41;2198651;40;20054;-78
2021/07/17 01:19:48;;;;;;;10.25;7.25;;;;;;;19.66;71.99;100329.38;2199674;40;20057;-79
2021/07/17 01:21:22;;;;;;;9.68;6.68;;;;;;;19.71;71.93;100332.34;2202075;40;20066;-79
2021/07/17 01:22:54;;;;;;;11.20;8.15;;;;;;;19.71;71.62;100332.34;2201049;40;20390;-78
2021/07/17 01:24:25;;;;;;;9.43;7.88;;;;;;;19.67;71.53;100325.63;2200242;40;20061;-78
2021/07/17 01:25:57;;;;;;;11.15;7.68;;;;;;;19.64;71.51;100331.47;2199470;40;20082;-78
2021/07/17 01:27:28;;;;;;;11.00;8.35;;;;;;;19.58;71.82;100322.25;2199054;40;20054;-79
2021/07/17 01:29:00;;;;;;;9.88;7.22;;;;;;;19.51;72.07;100321.34;2200216;40;20061;-79
2021/07/17 01:30:33;;;;;;;10.02;7.72;;;;;;;19.52;72.05;100323.00;2201455;40;20065;-78
2021/07/17 01:32:04;;;;;;;10.15;7.38;;;;;;;19.50;71.89;100322.41;2199798;40;20065;-79
2021/07/17 01:33:36;;;;;;;11.75;6.82;;;;;;;19.51;72.10;100309.66;2198740;40;20142;-78
2021/07/17 01:35:08;;;;;;;9.35;7.47;;;;;;;19.52;71.87;100323.00;2200188;40;20027;-79
2021/07/17 01:36:41;;;;;;;10.02;6.60;;;;;;;19.48;71.81;100322.56;2193020;40;20062;-79
2021/07/17 01:38:13;;;;;;;10.27;7.60;;;;;;;19.47;71.80;100320.88;2200257;40;20042;-79
2021/07/17 01:39:44;;;;;;;10.63;7.60;;;;;;;19.48;71.66;100325.28;2202333;40;20026;-78
2021/07/17 01:41:17;;;;;;;12.40;7.38;;;;;;;19.47;71.95;100323.59;2201537;40;20035;-79
2021/07/17 01:42:50;;;;;;;12.73;8.18;;;;;;;19.46;71.62;100324.63;2201572;40;20060;-78
2021/07/17 01:44:22;;;;;;;8.73;7.10;;;;;;;19.45;71.75;100328.41;2200487;40;20415;-79
2021/07/17 01:45:57;;;;;;;8.65;6.50;;;;;;;19.46;71.84;100321.91;2201459;40;20033;-79
2021/07/17 01:47:29;;;;;;;15.82;9.40;;;;;;;19.40;72.15;100328.13;2200855;40;20078;-78
2021/07/17 01:49:01;;;;;;;16.45;10.88;;;;;;;19.23;72.91;100329.47;2201321;40;20061;-78
2021/07/17 01:50:34;;;;;;;17.05;11.65;;;;;;;19.05;73.56;100325.34;2201540;40;20061;-78
2021/07/17 01:52:08;;;;;;;12.85;11.02;;;;;;;18.94;74.29;100325.84;2203839;40;20074;-79
2021/07/17 01:53:40;;;;;;;14.05;9.98;;;;;;;18.88;74.49;100330.13;2201197;40;20042;-78
2021/07/17 01:55:11;;;;;;;24.23;11.68;;;;;;;18.82;74.74;100329.03;2201788;40;20061;-79
2021/07/17 01:56:43;;;;;;;13.13;9.57;;;;;;;18.82;75.18;100320.09;2200802;40;20678;-78
2021/07/17 01:58:15;;;;;;;12.07;9.68;;;;;;;18.85;75.10;100325.94;2199322;40;20039;-78
2021/07/17 01:59:45;;;;;;;13.50;11.25;;;;;;;18.83;75.03;100322.59;2199881;40;20053;-78
2021/07/17 02:01:18;;;;;;;14.75;10.60;;;;;;;18.82;74.91;100333.63;2201082;40;20069;-79
2021/07/17 02:02:50;;;;;;;17.50;12.50;;;;;;;18.82;75.31;100329.03;2199576;40;20045;-77
2021/07/17 02:04:21;;;;;;;16.45;11.15;;;;;;;18.81;75.10;100338.19;2200913;40;20034;-78
2021/07/17 02:05:53;;;;;;;16.70;11.27;;;;;;;18.83;75.18;100336.13;2203255;40;20328;-78
2021/07/17 02:07:25;;;;;;;14.27;11.57;;;;;;;18.84;75.37;100335.09;2201388;40;20053;-77
2021/07/17 02:09:03;;;;;;;14.20;11.52;;;;;;;18.88;74.96;100340.16;2202529;40;20043;-78
2021/07/17 02:10:34;;;;;;;18.33;10.65;;;;;;;18.88;75.30;100334.72;2210061;40;20042;-80
2021/07/17 02:12:07;;;;;;;14.35;11.27;;;;;;;18.89;75.20;100331.00;2208258;40;20299;-78
2021/07/17 02:13:37;;;;;;;13.95;10.27;;;;;;;18.90;75.25;100325.38;2202248;40;20039;-77
2021/07/17 02:15:10;;;;;;;16.60;12.07;;;;;;;18.92;75.00;100325.16;2202663;40;20140;-77
2021/07/17 02:16:42;;;;;;;14.68;10.75;;;;;;;18.85;75.20;100331.38;2202485;40;20045;-78
2021/07/17 02:18:17;;;;;;;16.83;11.77;;;;;;;18.82;75.23;100334.44;2207989;40;20041;-79
2021/07/17 02:19:48;;;;;;;14.57;11.10;;;;;;;18.79;75.50;100332.16;2203330;40;20058;-77
2021/07/17 02:21:21;;;;;;;15.18;12.80;;;;;;;18.74;75.50;100329.16;2201687;40;20050;-79
2021/07/17 02:22:53;;;;;;;18.55;12.68;;;;;;;18.65;76.08;100324.88;2201853;40;20374;-77
2021/07/17 02:24:25;;;;;;;21.27;12.18;;;;;;;18.55;76.38;100323.31;2199828;40;20031;-77
2021/07/17 02:25:59;;;;;;;15.98;11.68;;;;;;;18.46;76.53;100319.06;2201353;40;20050;-78
2021/07/17 02:27:30;;;;;;;16.50;12.10;;;;;;;18.45;76.91;100317.38;2205359;40;20026;-78
2021/07/17 02:29:01;;;;;;;16.20;12.57;;;;;;;18.42;76.79;100311.50;2205161;40;20034;-77
2021/07/17 02:30:34;;;;;;;16.13;12.30;;;;;;;18.42;77.10;100312.34;2202081;40;20058;-77
2021/07/17 02:32:05;;;;;;;16.73;12.23;;;;;;;18.40;76.89;100315.25;2201815;40;20038;-76
2021/07/17 02:33:37;;;;;;;16.48;12.77;;;;;;;18.39;77.08;100321.69;2200945;40;21431;-77
2021/07/17 02:35:09;;;;;;;15.45;12.27;;;;;;;18.43;77.00;100314.00;2202345;40;20046;-77
2021/07/17 02:36:41;;;;;;;16.55;11.43;;;;;;;18.47;76.75;100320.75;2201257;40;20031;-77
2021/07/17 02:38:14;;;;;;;11.98;9.82;;;;;;;18.54;76.70;100313.53;2201218;40;20039;-77
2021/07/17 02:39:45;;;;;;;13.25;10.45;;;;;;;18.58;76.66;100321.28;2200938;40;20045;-77
2021/07/17 02:41:17;;;;;;;15.90;12.10;;;;;;;18.59;76.28;100314.84;2201957;40;20086;-76
2021/07/17 02:42:49;;;;;;;15.68;11.82;;;;;;;18.54;76.28;100312.69;2203519;40;20033;-77
2021/07/17 02:44:21;;;;;;;14.95;10.68;;;;;;;18.52;76.49;100312.03;2200447;40;20050;-77
2021/07/17 02:45:53;;;;;;;15.63;10.82;;;;;;;18.53;76.14;100311.84;2201889;40;20043;-77
2021/07/17 02:47:24;;;;;;;11.88;9.52;;;;;;;18.51;76.38;100316.63;2200961;40;20054;-77
2021/07/17 02:48:55;;;;;;;15.25;11.68;;;;;;;18.46;76.40;100312.81;2201810;40;20065;-77
2021/07/17 02:50:27;;;;;;;14.82;11.88;;;;;;;18.38;76.97;100306.47;2200863;40;20041;-77
2021/07/17 02:51:59;;;;;;;17.75;13.13;;;;;;;18.33;77.04;100308.91;2198909;40;20030;-78
2021/07/17 02:53:31;;;;;;;14.27;11.65;;;;;;;18.29;77.23;100313.00;2199996;40;20361;-78
2021/07/17 02:55:04;;;;;;;14.32;10.93;;;;;;;18.26;77.41;100316.13;2200409;40;20054;-78
2021/07/17 02:56:36;;;;;;;18.90;12.05;;;;;;;18.24;77.02;100319.00;2200800;40;20049;-77
2021/07/17 02:58:08;;;;;;;16.05;10.75;;;;;;;18.24;77.09;100318.16;2197501;40;20061;-79
2021/07/17 02:59:39;;;;;;;16.15;11.05;;;;;;;18.27;76.98;100325.06;2200950;40;20061;-79
2021/07/17 03:01:11;;;;;;;15.82;12.30;;;;;;;18.26;76.94;100312.56;2200698;40;20030;-78
2021/07/17 03:02:43;;;;;;;15.23;11.05;;;;;;;18.22;77.43;100312.09;2201477;40;20065;-78
2021/07/17 03:04:14;;;;;;;13.15;10.07;;;;;;;18.30;77.24;100320.09;2200597;40;20050;-78
2021/07/17 03:05:45;;;;;;;13.43;10.93;;;;;;;18.39;77.03;100318.97;2203765;40;20057;-78
2021/07/17 03:07:17;;;;;;;13.35;10.95;;;;;;;18.45;76.83;100324.66;2200775;40;20339;-77
2021/07/17 03:08:50;;;;;;;19.85;12.55;;;;;;;18.49;76.27;100318.69;2201579;40;20038;-78
2021/07/17 03:10:21;;;;;;;15.18;10.70;;;;;;;18.51;76.30;100326.59;2199480;40;20054;-79
2021/07/17 03:11:53;;;;;;;15.32;11.55;;;;;;;18.51;76.05;100321.19;2199794;40;20097;-78
2021/07/17 03:13:24;;;;;;;15.45;11.35;;;;;;;18.52;76.30;100318.28;2200455;40;20030;-77
2021/07/17 03:14:56;;;;;;;14.43;10.50;;;;;;;18.55;75.83;100326.03;2199459;40;20069;-78
2021/07/17 03:16:28;;;;;;;14.90;11.02;;;;;;;18.59;75.72;100314.84;2196296;40;20058;-77
2021/07/17 03:18:00;;;;;;;14.85;10.55;;;;;;;18.62;75.58;100322.56;2200555;40;20054;-79
2021/07/17 03:19:32;;;;;;;14.52;10.35;;;;;;;18.64;75.48;100320.50;2201096;40;20035;-79
2021/07/17 03:21:05;;;;;;;14.32;10.45;;;;;;;18.61;75.61;100321.72;2200282;40;20229;-78
2021/07/17 03:22:35;;;;;;;15.02;12.18;;;;;;;18.59;75.44;100318.38;2199993;40;20335;-78
2021/07/17 03:24:09;;;;;;;17.77;12.15;;;;;;;18.60;75.25;100321.94;2201075;40;20054;-77
2021/07/17 03:25:40;;;;;;;18.80;12.57;;;;;;;18.52;75.43;100318.28;2198927;40;20426;-78
2021/07/17 03:27:12;;;;;;;19.75;13.45;;;;;;;18.44;76.00;100314.88;2201213;40;20053;-76
2021/07/17 03:28:44;;;;;;;18.23;12.93;;;;;;;18.40;76.22;100319.81;2201037;40;20057;-77
2021/07/17 03:30:17;;;;;;;17.45;12.60;;;;;;;18.35;75.94;100312.28;2201377;40;20034;-78
2021/07/17 03:31:48;;;;;;;19.85;13.13;;;;;;;18.28;76.42;100319.44;2201048;40;20034;-76
2021/07/17 03:33:20;;;;;;;14.18;11.00;;;;;;;18.28;76.37;100321.31;2201540;40;20034;-77
2021/07/17 03:34:51;;;;;;;16.73;11.18;;;;;;;18.34;76.52;100316.00;2203072;40;20041;-78
2021/07/17 03:36:23;;;;;;;13.63;9.85;;;;;;;18.42;76.10;100309.63;2201946;40;20081;-79
2021/07/17 03:37:55;;;;;;;12.75;9.90;;;;;;;18.48;76.03;100311.59;2201331;40;20284;-80
2021/07/17 03:39:28;;;;;;;14.90;9.80;;;;;;;18.53;75.62;100311.03;2201646;40;20065;-79
2021/07/17 03:41:02;;;;;;;15.18;10.13;;;;;;;18.58;75.54;100315.88;2200567;40;20069;-79
2021/07/17 03:42:34;;;;;;;15.25;10.07;;;;;;;18.61;75.30;100321.72;2204926;40;20248;-77
2021/07/17 03:44:07;;;;;;;20.92;11.55;;;;;;;18.60;75.37;100321.94;2202518;40;20041;-78
2021/07/17 03:45:39;;;;;;;14.40;11.00;;;;;;;18.58;75.20;100319.41;2198755;40;20057;-78
2021/07/17 03:47:11;;;;;;;14.90;10.60;;;;;;;18.58;75.27;100326.69;2199931;40;20062;-79
2021/07/17 03:48:43;;;;;;;16.65;11.60;;;;;;;18.54;75.20;100329.78;2200554;40;20038;-78
2021/07/17 03:50:15;;;;;;;14.70;11.65;;;;;;;18.55;75.23;100327.91;2200187;40;20054;-78
2021/07/17 03:51:47;;;;;;;14.07;11.27;;;;;;;18.52;75.32;100329.13;2200567;40;20054;-79
2021/07/17 03:53:18;;;;;;;14.23;11.57;;;;;;;18.59;75.18;100328.38;2200805;40;20628;-79
2021/07/17 03:54:50;;;;;;;15.23;11.27;;;;;;;18.61;75.10;100326.31;2198272;40;20538;-78
2021/07/17 03:56:22;;;;;;;15.02;10.77;;;;;;;18.60;75.26;100330.88;2200730;40;20050;-78
2021/07/17 03:57:54;;;;;;;11.85;10.43;;;;;;;18.63;75.39;100333.22;2200110;40;20046;-78
2021/07/17 03:59:26;;;;;;;14.32;10.85;;;;;;;18.67;75.01;100336.38;2200998;40;20045;-78
2021/07/17 04:00:58;;;;;;;18.15;13.13;;;;;;;18.64;74.79;100336.75;2198911;40;20038;-79
2021/07/17 04:02:38;;;;;;;18.80;13.13;;;;;;;18.52;75.29;100334.53;2201070;40;20031;-78
2021/07/17 04:04:13;;;;;;;;;;;;;;;18.42;75.37;100344.00;2202219;40;20057;-76
2021/07/17 04:05:45;;;;;;;13.63;10.63;;;;;;;18.43;75.73;100341.09;2201411;40;20340;-77
2021/07/17 04:07:17;;;;;;;19.30;13.57;;;;;;;18.44;75.75;100341.94;2202451;40;20038;-76
2021/07/17 04:08:49;;;;;;;20.05;15.40;;;;;;;18.39;75.66;100345.22;2201132;40;20558;-77
2021/07/17 04:10:21;;;;;;;16.17;12.60;;;;;;;18.30;76.19;100340.94;2201794;40;20054;-77
2021/07/17 04:11:53;;;;;;;16.10;12.40;;;;;;;18.21;76.19;100348.28;2201898;40;20041;-76
2021/07/17 04:13:24;;;;;;;20.67;14.57;;;;;;;18.16;76.75;100348.84;2201047;40;20215;-77
2021/07/17 04:14:56;;;;;;;19.13;13.75;;;;;;;18.16;76.67;100351.56;2200734;40;20062;-76
2021/07/17 04:16:28;;;;;;;15.75;12.98;;;;;;;18.18;76.80;100349.53;2195415;40;20043;-77
2021/07/17 04:18:00;;;;;;;18.92;12.00;;;;;;;18.22;76.67;100353.53;2201321;40;20045;-76
2021/07/17 04:19:32;;;;;;;23.08;13.35;;;;;;;18.31;76.79;100353.44;2201536;40;20031;-77
2021/07/17 04:21:03;;;;;;;17.20;12.25;;;;;;;18.32;76.54;100357.81;2201256;40;20050;-78
2021/07/17 04:22:36;;;;;;;14.98;12.18;;;;;;;18.36;76.28;100351.00;2203494;40;20038;-77
2021/07/17 04:24:08;;;;;;;18.25;12.95;;;;;;;18.40;76.31;100352.31;2203929;40;20053;-77
2021/07/17 04:25:41;;;;;;;18.55;13.90;;;;;;;18.47;76.13;100346.94;2204215;40;20046;-76
2021/07/17 04:27:13;;;;;;;16.90;11.88;;;;;;;18.49;76.05;100345.75;2202805;40;20038;-80
2021/07/17 04:28:44;;;;;;;17.90;14.90;;;;;;;18.50;75.73;100352.00;2202684;40;20050;-79
2021/07/17 04:30:15;;;;;;;21.83;16.77;;;;;;;18.39;76.16;100350.63;2202113;40;20045;-78
2021/07/17 04:31:47;;;;;;;23.17;14.68;;;;;;;18.32;76.37;100355.13;2203997;40;20069;-77
2021/07/17 04:33:19;;;;;;;18.08;13.43;;;;;;;18.35;76.58;100360.13;2202406;40;20035;-79
2021/07/17 04:34:50;;;;;;;17.02;12.85;;;;;;;18.35;76.35;100358.28;2200450;40;20030;-77
2021/07/17 04:36:21;;;;;;;18.90;13.13;;;;;;;18.39;76.21;100350.63;2200676;40;20070;-77
2021/07/17 04:37:53;;;;;;;16.02;12.55;;;;;;;18.42;76.42;100355.63;2200709;40;20268;-77
2021/07/17 04:39:24;;;;;;;23.08;15.02;;;;;;;18.43;76.11;100360.03;2205425;40;20077;-79
2021/07/17 04:40:58;;;;;;;20.55;15.40;;;;;;;18.37;76.39;100361.63;2204941;40;20027;-79
2021/07/17 04:42:29;;;;;;;18.95;13.55;;;;;;;18.31;76.46;100367.78;2201177;40;20295;-76
2021/07/17 04:44:02;;;;;;;19.65;14.55;;;;;;;18.34;76.79;100366.56;2200891;40;20431;-77
2021/07/17 04:45:35;;;;;;;16.77;13.07;;;;;;;18.34;76.53;100369.28;2201164;40;20193;-77
2021/07/17 04:47:06;;;;;;;20.40;13.85;;;;;;;18.35;76.50;100365.53;2200088;40;20039;-77
2021/07/17 04:48:38;;;;;;;18.33;13.73;;;;;;;18.35;76.89;100370.97;2201535;40;20022;-77
2021/07/17 04:50:12;;;;;;;18.50;13.55;;;;;;;18.40;76.53;100355.00;2200478;40;20039;-77
2021/07/17 04:51:44;;;;;;;20.80;12.82;;;;;;;18.46;76.45;100364.25;2201882;40;20338;-76
2021/07/17 04:53:16;;;;;;;18.67;13.45;;;;;;;18.47;76.24;100368.59;2200674;40;20050;-77
2021/07/17 04:54:48;;;;;;;19.05;12.48;;;;;;;18.47;76.35;100361.34;2200423;40;20078;-76
2021/07/17 04:56:22;;;;;;;16.58;12.82;;;;;;;18.48;76.51;100357.59;2200850;40;20039;-76
2021/07/17 04:57:54;;;;;;;16.52;11.77;;;;;;;18.49;76.49;100362.00;2200908;40;20079;-77
2021/07/17 04:59:25;;;;;;;14.07;11.35;;;;;;;18.53;76.19;100357.88;2200847;40;20108;-77
2021/07/17 07:22:53;;;;;;;18.73;12.38;;;;;;;19.52;75.61;100389.97;2214222;40;20566;-87
2021/07/17 07:24:25;;;;;;;19.95;13.23;;;;;;;19.51;75.11;100393.72;2202820;40;20023;-89
2021/07/17 07:47:38;;;;;;;13.20;9.38;;;;;;;20.29;72.93;100388.25;2213338;40;20084;-84
2021/07/17 07:49:10;;;;;;;14.43;10.25;;;;;;;20.42;72.57;100393.72;2213529;40;20041;-83
2021/07/17 07:50:42;;;;;;;15.40;9.70;;;;;;;20.59;72.01;100387.97;2213933;40;20052;-85
2021/07/17 07:52:13;;;;;;;15.93;9.98;;;;;;;20.72;71.68;100390.72;2215502;40;20030;-88
2021/07/17 07:56:57;;;;;;;18.40;9.93;;;;;;;20.93;70.92;100397.09;2213568;40;20061;-84
2021/07/17 07:58:29;;;;;;;15.20;9.82;;;;;;;20.95;70.64;100391.44;2213923;40;20414;-88
2021/07/17 08:00:01;;;;;;;15.23;9.73;;;;;;;20.95;70.33;100392.28;2218449;40;20040;-85
2021/07/17 08:01:33;;;;;;;14.50;10.38;;;;;;;20.89;70.54;100390.38;2209433;40;20034;-87
2021/07/17 08:03:06;;;;;;;19.80;11.40;;;;;;;20.87;70.76;100400.63;2209348;40;20459;-88
2021/07/17 08:04:37;;;;;;;13.45;9.30;;;;;;;20.84;71.06;100396.44;2209912;40;20026;-87
2021/07/17 08:06:09;;;;;;;17.77;11.43;;;;;;;20.82;70.69;100395.81;2219431;40;20046;-87
2021/07/17 08:07:40;;;;;;;15.00;9.35;;;;;;;20.82;70.81;100392.25;2221342;40;20036;-88
2021/07/17 08:09:13;;;;;;;16.67;10.55;;;;;;;20.83;70.56;100389.31;2221336;40;20044;-87
2021/07/17 08:10:45;;;;;;;11.60;9.18;;;;;;;20.86;70.53;100382.66;2221543;40;20048;-89
2021/07/17 08:12:17;;;;;;;11.82;8.50;;;;;;;20.85;70.35;100397.28;2221634;40;20026;-86
2021/07/17 08:13:49;;;;;;;12.70;8.48;;;;;;;20.84;70.40;100392.88;2221802;40;20037;-88
2021/07/17 08:15:21;;;;;;;10.70;8.25;;;;;;;20.89;70.41;100390.38;2221606;40;20033;-86
2021/07/17 08:16:52;;;;;;;13.35;8.82;;;;;;;20.91;70.62;100384.75;2221721;40;20024;-88
2021/07/17 08:18:25;;;;;;;14.48;10.93;;;;;;;20.88;70.56;100392.28;2221740;40;20080;-88
2021/07/17 08:19:56;;;;;;;13.30;8.88;;;;;;;20.83;70.65;100380.34;2221512;40;20010;-88
2021/07/17 08:21:28;;;;;;;14.55;9.25;;;;;;;20.85;70.71;100392.66;2209464;40;20023;-88
2021/07/17 08:23:00;;;;;;;14.77;9.77;;;;;;;20.88;70.74;100394.13;2209506;40;20043;-88
2021/07/17 08:24:31;;;;;;;17.70;10.50;;;;;;;20.91;70.54;100390.19;2209498;40;20023;-86
2021/07/17 08:26:03;;;;;;;16.55;10.50;;;;;;;20.91;70.70;100391.03;2209553;40;20042;-85
2021/07/17 08:27:34;;;;;;;13.70;10.25;;;;;;;20.92;70.68;100389.97;2210123;40;20034;-87
2021/07/17 08:29:06;;;;;;;15.25;9.57;;;;;;;20.94;71.01;100395.19;2209887;40;20081;-85
2021/07/17 08:30:38;;;;;;;19.35;10.38;;;;;;;20.95;70.97;100395.00;2209534;40;20057;-86
2021/07/17 08:32:09;;;;;;;10.80;8.55;;;;;;;20.98;70.97;100394.59;2208982;40;20031;-86
2021/07/17 08:33:42;;;;;;;12.50;8.68;;;;;;;21.01;70.64;100391.47;2209046;40;20089;-86
2021/07/17 08:35:13;;;;;;;13.52;9.35;;;;;;;21.04;70.58;100391.06;2209141;40;20034;-87
2021/07/17 08:36:45;;;;;;;13.93;8.85;;;;;;;21.08;70.30;100390.63;2210372;40;20038;-86
2021/07/17 08:38:17;;;;;;;11.82;8.85;;;;;;;21.07;70.37;100394.38;2210214;40;20029;-85
2021/07/17 08:39:49;;;;;;;14.80;10.23;;;;;;;21.10;70.31;100396.72;2210085;40;20030;-85
2021/07/17 08:41:26;;;;;;;19.25;11.23;;;;;;;21.08;70.01;100398.78;2210164;40;20084;-85
2021/07/17 08:42:58;;;;;;;16.17;10.38;;;;;;;20.94;70.63;100395.19;2210265;40;20022;-85
2021/07/17 08:44:29;;;;;;;18.75;10.45;;;;;;;20.90;70.66;100396.66;2210216;40;20029;-89
2021/07/17 08:46:02;;;;;;;18.50;10.10;;;;;;;20.82;70.96;100394.97;2210265;40;20046;-86
2021/07/17 08:47:38;;;;;;;15.05;9.88;;;;;;;20.75;70.95;100400.38;2210394;40;20025;-87
2021/07/17 08:49:11;;;;;;;15.10;10.23;;;;;;;20.74;71.14;100401.41;2210221;40;20018;-86
2021/07/17 08:50:43;;;;;;;13.65;8.80;;;;;;;20.78;71.25;100391.00;2210256;40;20414;-85
2021/07/17 08:52:15;;;;;;;14.32;10.25;;;;;;;20.84;71.24;100391.00;2209852;40;20034;-86
2021/07/17 08:53:46;;;;;;;10.13;8.38;;;;;;;20.90;70.96;100392.06;2210001;40;20104;-87
2021/07/17 08:55:19;;;;;;;16.48;10.77;;;;;;;20.95;70.85;100386.88;2209951;40;20063;-88
2021/07/17 08:56:51;;;;;;;13.57;9.20;;;;;;;20.97;70.83;100384.75;2209986;40;20255;-85
2021/07/17 08:58:24;;;;;;;11.70;9.15;;;;;;;21.02;70.90;100386.84;2216243;40;20037;-87
2021/07/17 08:59:55;;;;;;;15.23;9.90;;;;;;;21.01;70.59;100386.03;2216228;40;20045;-86
2021/07/17 09:01:27;;;;;;;18.40;11.63;;;;;;;21.02;70.46;100387.72;2220498;40;20049;-88
2021/07/17 09:03:00;;;;;;;14.13;9.75;;;;;;;20.99;70.80;100376.41;2223066;40;20032;-88
2021/07/17 09:04:33;;;;;;;13.27;9.02;;;;;;;21.06;70.71;100381.88;2210175;40;20116;-87
2021/07/17 09:06:05;;;;;;;13.55;9.55;;;;;;;21.13;70.68;100378.09;2209910;40;20039;-88
2021/07/17 09:07:37;;;;;;;14.88;9.25;;;;;;;21.14;70.80;100368.91;2209818;40;20107;-85
2021/07/17 09:09:08;;;;;;;17.30;10.30;;;;;;;21.17;70.55;100370.38;2209932;40;20473;-87
2021/07/17 09:10:41;;;;;;;15.55;8.95;;;;;;;21.24;70.73;100360.38;2210044;40;20087;-86
2021/07/17 09:12:30;;;;;;;15.10;10.45;;;;;;;21.34;70.12;100363.50;2209964;40;20050;-88
2021/07/17 09:14:02;;;;;;;12.90;9.18;;;;;;;21.43;69.73;100366.03;2210078;40;20050;-84
2021/07/17 09:15:33;;;;;;;17.95;9.80;;;;;;;21.56;69.35;100368.72;2210149;40;20044;-86
2021/07/17 09:17:05;;;;;;;13.45;9.30;;;;;;;21.60;68.94;100371.88;2210164;40;20193;-85
2021/07/17 09:18:40;;;;;;;11.38;8.30;;;;;;;21.59;69.02;100367.50;2210039;40;20035;-87
2021/07/17 09:20:12;;;;;;;12.93;9.15;;;;;;;21.66;68.89;100366.44;2209895;40;20038;-87
2021/07/17 09:21:44;;;;;;;15.77;9.73;;;;;;;21.76;68.23;100366.03;2209982;40;20043;-87
2021/07/17 09:23:15;;;;;;;12.75;7.90;;;;;;;21.84;68.00;100367.69;2210075;40;20026;-88
2021/07/17 09:25:06;;;;;;;15.48;9.68;;;;;;;21.86;67.32;100359.34;2209925;40;20026;-86
2021/07/17 09:26:38;;;;;;;;;;;;;;;21.80;67.51;100359.13;2221961;40;20053;-88
2021/07/17 09:28:17;;;;;;;13.90;9.40;;;;;;;21.88;67.10;100358.06;2222516;40;19933;-88
2021/07/17 09:29:50;;;;;;;12.60;8.77;;;;;;;21.86;66.82;100354.72;2210502;40;20022;-89
2021/07/17 09:31:23;;;;;;;11.65;7.63;;;;;;;21.92;66.43;100356.56;2210140;40;20021;-89
2021/07/17 09:32:57;;;;;;;14.32;9.25;;;;;;;22.03;66.18;100343.38;2207607;40;25047;-86
2021/07/17 09:34:31;;;;;;;15.18;9.07;;;;;;;22.04;65.85;100350.47;2220422;40;20359;-88
2021/07/17 09:36:05;;;;;;;14.02;9.50;;;;;;;22.01;66.00;100351.75;2222391;40;20037;-88
2021/07/17 09:37:36;;;;;;;12.10;9.05;;;;;;;22.00;66.04;100351.97;2221981;40;20037;-86
2021/07/17 09:39:16;;;;;;;15.85;11.32;;;;;;;22.06;65.83;100342.94;2221801;40;20384;-86
2021/07/17 09:40:49;;;;;;;11.45;8.88;;;;;;;22.06;65.71;100334.78;2221053;40;20205;-85
2021/07/17 09:42:22;;;;;;;12.90;8.57;;;;;;;22.09;65.54;100334.38;2222047;40;20029;-89
2021/07/17 09:44:03;;;;;;;12.05;8.13;;;;;;;22.17;65.26;100333.28;2222559;40;20037;-90
2021/07/17 09:45:36;;;;;;;;;;;;;;;22.19;65.37;100328.44;2210740;40;20033;-88
2021/07/17 09:47:15;;;;;;;11.88;7.88;;;;;;;22.23;64.97;100324.25;2209967;40;19937;-90
2021/07/17 09:48:48;;;;;;;12.20;8.57;;;;;;;22.17;64.98;100328.69;2209954;40;20053;-89
2021/07/17 09:50:20;;;;;;;12.57;8.15;;;;;;;22.19;65.01;100334.75;2210194;40;20051;-89